Terminal Aerodrome Forecast
Issued by NWS Wilmington, OH

Current Version | Previous Version | Text Only | Print | Product List | Glossary Off
Versions: 1 2 3 4 5 6 7 8 9 10 11 12 13 14 15 16 17 18 19 20 21 22 23 24 25 26 27 28

000
FTUS41 KILN 132300
TAFCVG
TAF
KCVG 132340Z 1400/1506 18012KT P6SM FEW060 BKN200
     FM140900 18015G22KT P6SM VCSH BKN050 OVC120
     FM141300 20018G30KT P6SM -SHRA OVC050
     FM141700 24015G23KT P6SM -SHRA VCTS SCT025 OVC040CB
     FM142200 29014G22KT P6SM -RA SCT010 OVC025
     FM150200 33016KT P6SM -RA OVC008=

USA.gov is the U.S. government's official web portal to all federal, state and local government web resources and services.